Time;durP1;ratioP1;P1;durP2;ratioP2;P2;SDS_P1;SDS_P2;PMS_P1;PMS_P2;Temp;Humidity;BMP_temperature;BMP_pressure;BME280_temperature;BME280_humidity;BME280_pressure;Samples;Min_cycle;Max_cycle;Signal;HPM_P1;HPM_P2
2022/05/07 00:02:10;;;;;;;31.88;19.73;;;;;;;11.46;76.97;102278.69;4956895;28;20042;-66
2022/05/07 00:04:37;;;;;;;32.30;20.88;;;;;;;11.50;77.42;102274.94;4974658;28;20814;-66
2022/05/07 00:07:06;;;;;;;33.20;22.20;;;;;;;11.54;77.31;102278.31;4974296;28;20042;-66
2022/05/07 00:09:32;;;;;;;29.25;19.65;;;;;;;11.54;76.89;102279.19;4974521;28;20115;-66
2022/05/07 00:11:58;;;;;;;39.50;22.55;;;;;;;11.51;77.91;102265.97;4956492;28;20056;-66
2022/05/07 00:14:23;;;;;;;34.33;23.20;;;;;;;11.50;78.62;102272.25;4974428;28;20027;-66
2022/05/07 00:19:34;;;;;;;28.90;18.08;;;;;;;11.00;78.86;102264.66;4973359;28;20049;-66
2022/05/07 00:22:00;;;;;;;34.22;20.75;;;;;;;11.06;79.69;102260.84;4962002;28;20026;-66
2022/05/07 00:24:25;;;;;;;33.30;22.27;;;;;;;11.22;79.54;102266.38;4936361;28;20125;-66
2022/05/07 00:26:51;;;;;;;33.67;22.38;;;;;;;11.25;79.19;102260.94;4955108;28;20117;-66
2022/05/07 00:29:17;;;;;;;29.65;20.05;;;;;;;11.12;79.55;102271.25;4953900;28;20038;-66
2022/05/07 00:31:42;;;;;;;32.33;21.45;;;;;;;10.85;81.20;102265.28;4937587;28;20062;-66
2022/05/07 00:34:08;;;;;;;35.80;22.83;;;;;;;10.75;82.87;102269.28;4935442;28;20161;-67
2022/05/07 00:36:34;;;;;;;36.15;22.48;;;;;;;10.82;82.73;102266.28;4937051;28;20049;-67
2022/05/07 00:38:59;;;;;;;39.13;23.95;;;;;;;10.96;81.80;102271.03;4962572;28;20030;-66
2022/05/07 00:41:25;;;;;;;41.03;25.25;;;;;;;10.89;82.54;102267.78;4955987;28;20030;-65
2022/05/07 00:43:50;;;;;;;40.67;25.30;;;;;;;11.03;81.50;102266.28;4974193;28;20061;-66
2022/05/07 00:46:17;;;;;;;38.00;24.58;;;;;;;11.13;81.44;102264.97;4955662;28;20542;-66
2022/05/07 00:48:43;;;;;;;42.53;26.13;;;;;;;11.07;81.96;102266.09;4956730;28;20066;-66
2022/05/07 00:53:54;;;;;;;43.80;25.38;;;;;;;11.29;81.23;102250.00;4956301;28;20385;-66
2022/05/07 00:56:20;;;;;;;39.38;25.85;;;;;;;11.37;80.78;102255.91;4955988;28;20120;-66
2022/05/07 00:58:45;;;;;;;40.42;26.13;;;;;;;11.34;81.17;102253.34;4957190;28;20608;-66
2022/05/07 01:01:14;;;;;;;42.47;24.92;;;;;;;11.28;81.66;102245.63;4953078;28;20066;-66
2022/05/07 01:03:39;;;;;;;48.00;27.27;;;;;;;11.18;82.50;102246.94;4956370;28;20046;-66
2022/05/07 01:06:05;;;;;;;46.55;27.45;;;;;;;11.26;83.06;102243.97;4938425;28;20038;-67
2022/05/07 01:08:33;;;;;;;46.20;28.30;;;;;;;11.39;82.81;102247.81;4954446;28;20037;-67
2022/05/07 01:10:59;;;;;;;43.17;27.42;;;;;;;11.25;83.37;102247.56;4954557;28;20116;-66
2022/05/07 01:13:25;;;;;;;49.58;26.90;;;;;;;11.22;83.24;102245.88;4954782;28;20637;-68
2022/05/07 01:15:57;;;;;;;37.63;24.98;;;;;;;11.36;81.24;102250.63;4953738;28;20119;-66
2022/05/07 01:18:25;;;;;;;38.33;25.08;;;;;;;11.41;81.12;102240.63;4939478;28;20670;-66
2022/05/07 01:20:55;;;;;;;36.67;23.95;;;;;;;11.13;81.30;102241.81;4956133;28;20038;-66
2022/05/07 01:23:21;;;;;;;33.97;22.27;;;;;;;11.11;80.61;102253.50;4971972;28;20039;-66
2022/05/07 01:25:46;;;;;;;42.72;24.60;;;;;;;11.14;81.26;102234.66;4973186;28;20049;-66
2022/05/07 01:28:13;;;;;;;42.33;25.50;;;;;;;11.23;81.21;102234.28;4955296;28;20124;-66
2022/05/07 01:30:39;;;;;;;42.90;25.95;;;;;;;11.16;81.73;102230.16;4955502;28;20045;-66
2022/05/07 01:33:05;;;;;;;44.67;26.42;;;;;;;11.11;82.84;102233.00;4954273;28;20034;-67
2022/05/07 01:35:32;;;;;;;44.53;27.48;;;;;;;11.25;83.05;102229.75;4938521;28;20046;-66
2022/05/07 01:37:57;;;;;;;43.65;26.98;;;;;;;11.14;84.01;102224.88;4954236;28;20049;-66
2022/05/07 01:40:26;;;;;;;45.28;29.55;;;;;;;11.18;83.75;102225.59;4953905;28;20046;-66
2022/05/07 01:42:53;;;;;;;51.20;29.05;;;;;;;11.28;83.50;102231.41;4953910;28;20065;-66
2022/05/07 01:45:19;;;;;;;39.92;25.17;;;;;;;11.26;82.20;102226.13;4955371;28;20766;-66
2022/05/07 01:50:34;;;;;;;35.08;23.42;;;;;;;11.13;80.96;102225.78;4958424;28;20817;-66
2022/05/07 01:53:00;;;;;;;35.92;23.70;;;;;;;11.08;80.91;102222.44;4958675;28;20035;-66
2022/05/07 01:55:26;;;;;;;35.17;22.73;;;;;;;10.86;82.24;102221.66;4958951;28;20039;-67
2022/05/07 01:57:52;;;;;;;40.50;25.38;;;;;;;10.71;83.75;102225.84;4943153;28;20440;-66
2022/05/07 02:00:19;;;;;;;41.50;26.10;;;;;;;10.74;84.46;102220.34;4958018;28;20046;-66
2022/05/07 02:02:45;;;;;;;45.67;26.77;;;;;;;10.83;84.57;102222.63;4959274;28;20048;-66
2022/05/07 02:05:21;;;;;;;43.58;26.90;;;;;;;10.85;85.11;102223.47;4957769;28;20745;-66
2022/05/07 02:07:46;;;;;;;42.72;25.85;;;;;;;10.53;84.33;102218.56;4975749;28;20038;-66
2022/05/07 02:10:14;;;;;;;35.75;23.25;;;;;;;10.46;83.05;102215.31;4956881;28;20105;-66
2022/05/07 02:12:40;;;;;;;49.50;27.25;;;;;;;10.47;84.20;102219.69;4956395;28;20042;-66
2022/05/07 02:15:07;;;;;;;42.78;26.48;;;;;;;10.73;83.41;102220.41;4955580;28;20038;-66
2022/05/07 02:17:33;;;;;;;42.88;26.63;;;;;;;10.85;82.49;102217.25;4972797;28;20291;-68
2022/05/07 02:19:58;;;;;;;43.88;26.60;;;;;;;10.96;82.00;102219.47;4975548;28;20571;-69
2022/05/07 02:22:24;;;;;;;40.72;25.40;;;;;;;10.85;82.07;102218.13;4958993;28;20039;-65
2022/05/07 02:24:50;;;;;;;40.75;25.15;;;;;;;10.54;83.79;102214.97;4956232;28;20053;-66
2022/05/07 02:27:21;;;;;;;44.63;25.90;;;;;;;10.47;83.52;102225.03;4937658;28;20149;-67
2022/05/07 02:29:47;;;;;;;38.50;24.25;;;;;;;10.59;82.15;102219.22;4937537;28;20030;-66
2022/05/07 02:32:13;;;;;;;40.40;26.48;;;;;;;10.73;82.38;102217.75;4954980;28;20112;-66
2022/05/07 02:34:42;;;;;;;41.17;25.98;;;;;;;10.78;82.06;102207.75;4953662;28;20053;-66
2022/05/07 02:37:15;;;;;;;41.30;26.13;;;;;;;10.72;82.01;102216.03;4953705;28;20062;-66
2022/05/07 02:39:45;;;;;;;43.30;25.63;;;;;;;10.76;82.26;102217.63;4968456;28;20062;-66
2022/05/07 02:44:56;;;;;;;35.00;22.30;;;;;;;10.67;81.43;102215.34;4956903;28;20038;-65
2022/05/07 02:47:22;;;;;;;42.22;24.98;;;;;;;10.54;83.78;102212.31;4975108;28;20038;-66
2022/05/07 02:49:48;;;;;;;38.38;24.58;;;;;;;10.58;83.07;102208.59;4957702;28;20821;-66
2022/05/07 02:52:14;;;;;;;40.05;24.20;;;;;;;10.58;83.10;102212.13;4940300;28;20994;-65
2022/05/07 02:54:40;;;;;;;40.63;24.05;;;;;;;10.47;83.98;102211.69;4975902;28;20034;-65
2022/05/07 02:57:05;;;;;;;41.00;24.38;;;;;;;10.63;83.05;102210.13;4955329;28;20878;-66
2022/05/07 02:59:31;;;;;;;42.42;26.45;;;;;;;10.50;84.52;102200.06;4974441;28;20042;-66
2022/05/07 03:01:57;;;;;;;39.83;25.05;;;;;;;10.47;86.20;102206.38;4941060;28;20070;-66
2022/05/07 03:04:24;;;;;;;47.47;28.42;;;;;;;10.56;85.77;102205.13;4956138;28;20046;-66
2022/05/07 03:06:50;;;;;;;49.03;29.10;;;;;;;10.58;85.99;102201.44;4974793;28;20808;-66
2022/05/07 03:09:15;;;;;;;50.67;27.27;;;;;;;10.57;86.61;102207.72;4956731;28;20046;-66
2022/05/07 03:11:43;;;;;;;50.42;29.60;;;;;;;10.57;86.40;102202.38;4975092;28;20311;-65
2022/05/07 03:14:14;;;;;;;47.50;28.67;;;;;;;10.63;86.48;102199.47;4955982;28;20089;-65
2022/05/07 03:16:40;;;;;;;44.90;26.58;;;;;;;10.75;85.80;102195.44;4958168;28;20042;-65
2022/05/07 03:19:07;;;;;;;47.38;28.00;;;;;;;10.91;84.71;102198.31;4956255;28;20121;-65
2022/05/07 03:21:33;;;;;;;48.72;27.63;;;;;;;10.88;84.29;102196.63;4966617;28;20038;-65
2022/05/07 03:23:58;;;;;;;43.47;25.30;;;;;;;10.84;84.31;102207.50;4955869;28;20047;-65
2022/05/07 03:26:24;;;;;;;38.95;23.30;;;;;;;10.51;84.12;102202.66;4955573;28;20105;-65
2022/05/07 03:28:51;;;;;;;37.28;22.80;;;;;;;10.47;83.79;102200.16;4938015;28;20153;-65
2022/05/07 03:31:19;;;;;;;37.80;22.10;;;;;;;10.50;83.60;102202.72;4937386;28;20038;-69
2022/05/07 03:33:46;;;;;;;37.97;24.90;;;;;;;10.65;83.13;102199.41;4938038;28;20594;-67
2022/05/07 03:36:12;;;;;;;44.47;26.30;;;;;;;10.71;83.15;102209.81;4955299;28;20038;-67
2022/05/07 03:38:38;;;;;;;42.13;25.40;;;;;;;10.77;83.45;102198.88;4943454;28;20030;-67
2022/05/07 03:41:09;;;;;;;41.50;24.52;;;;;;;10.77;83.69;102198.88;4941627;28;20862;-67
2022/05/07 03:43:38;;;;;;;47.08;24.52;;;;;;;10.70;83.66;102207.22;4956771;28;20053;-66
2022/05/07 03:46:04;;;;;;;40.53;25.42;;;;;;;10.62;84.12;102200.41;4956393;28;20030;-67
2022/05/07 03:48:30;;;;;;;39.45;25.80;;;;;;;10.67;83.90;102202.88;4975121;28;20785;-67
2022/05/07 03:50:57;;;;;;;37.78;23.77;;;;;;;10.58;83.66;102197.91;4974800;28;20050;-67
2022/05/07 03:53:30;;;;;;;40.17;24.65;;;;;;;10.56;83.47;102195.31;4937888;28;20142;-65
2022/05/07 03:56:06;;;;;;;44.25;24.35;;;;;;;10.53;83.52;102200.78;4938112;28;20121;-67
2022/05/07 03:58:35;;;;;;;42.45;24.83;;;;;;;10.31;84.97;102200.78;4954971;28;20775;-67
2022/05/07 04:01:01;;;;;;;35.88;22.45;;;;;;;10.31;84.29;102200.78;4955500;28;20039;-67
2022/05/07 04:03:29;;;;;;;46.65;26.20;;;;;;;10.46;84.42;102198.44;4937969;28;20050;-67
2022/05/07 04:05:56;;;;;;;40.90;24.35;;;;;;;10.57;84.00;102197.06;4937401;28;20825;-67
2022/05/07 04:08:23;;;;;;;42.92;25.55;;;;;;;10.65;83.45;102199.41;4936568;28;20034;-67
2022/05/07 04:10:49;;;;;;;47.13;27.70;;;;;;;10.65;83.74;102198.56;4937013;28;20039;-67
2022/05/07 04:13:19;;;;;;;38.38;24.73;;;;;;;10.60;83.95;102204.94;4936212;28;20041;-67
2022/05/07 04:15:50;;;;;;;42.40;25.35;;;;;;;10.71;83.83;102199.16;4953387;28;20039;-67
2022/05/07 04:18:16;;;;;;;43.70;26.00;;;;;;;10.75;83.78;102203.44;4935470;28;20902;-66
2022/05/07 04:20:43;;;;;;;47.35;27.48;;;;;;;10.81;83.74;102200.50;4938495;28;20042;-67
2022/05/07 04:23:12;;;;;;;43.63;25.63;;;;;;;10.80;84.19;102198.78;4939573;28;20746;-67
2022/05/07 04:25:42;;;;;;;40.10;24.80;;;;;;;10.75;83.97;102198.09;4956286;28;20042;-68
2022/05/07 04:28:08;;;;;;;41.83;24.95;;;;;;;10.81;83.79;102192.50;4955745;28;20798;-67
2022/05/07 04:30:35;;;;;;;41.60;25.13;;;;;;;10.85;83.80;102193.25;4956390;28;20046;-67
2022/05/07 04:33:00;;;;;;;36.38;22.58;;;;;;;10.93;83.54;102195.56;4955943;28;20707;-67
2022/05/07 04:35:26;;;;;;;40.63;24.80;;;;;;;10.91;84.04;102200.09;4939590;28;20039;-67
2022/05/07 04:37:54;;;;;;;39.70;25.50;;;;;;;10.85;84.66;102196.78;4957202;28;20085;-67
2022/05/07 04:40:20;;;;;;;42.75;25.75;;;;;;;10.97;84.47;102197.16;4937444;28;20355;-67
2022/05/07 04:42:45;;;;;;;44.92;25.23;;;;;;;11.19;83.69;102205.97;4936572;28;20046;-67
2022/05/07 04:45:11;;;;;;;35.47;23.52;;;;;;;11.28;83.15;102200.22;4936299;28;20046;-67
2022/05/07 04:47:55;;;;;;;42.25;25.17;;;;;;;11.26;84.15;102201.25;4953048;28;20145;-67
2022/05/07 04:50:25;;;;;;;41.63;26.38;;;;;;;11.21;84.30;102198.78;4936908;28;20046;-67
2022/05/07 04:53:01;;;;;;;42.65;26.17;;;;;;;11.40;83.88;102202.34;4946718;28;20809;-67
2022/05/07 04:55:27;;;;;;;45.45;27.80;;;;;;;11.61;83.28;102197.84;4939654;28;20114;-67
2022/05/07 04:57:55;;;;;;;43.50;26.23;;;;;;;11.74;82.26;102203.47;4955475;28;20042;-67
2022/05/07 05:00:26;;;;;;;45.75;26.67;;;;;;;11.83;82.30;102203.06;4956838;28;20038;-67
2022/05/07 05:03:15;;;;;;;39.25;24.73;;;;;;;11.98;81.98;102200.63;4962057;28;20782;-67
2022/05/07 05:05:50;;;;;;;43.05;25.45;;;;;;;12.03;81.32;102202.13;4941057;28;20041;-67
2022/05/07 05:08:31;;;;;;;40.33;24.80;;;;;;;12.20;80.99;102206.69;4955195;28;20042;-67
2022/05/07 05:10:57;;;;;;;32.13;20.85;;;;;;;11.73;82.63;102207.09;4956085;28;20128;-67
2022/05/07 05:13:24;;;;;;;35.88;23.52;;;;;;;11.89;81.77;102209.94;4956283;28;20133;-67
2022/05/07 05:15:51;;;;;;;35.20;21.58;;;;;;;12.05;81.94;102219.00;4954821;28;20053;-66
2022/05/07 05:18:38;;;;;;;37.10;22.75;;;;;;;12.18;81.18;102214.78;4974962;28;20042;-67
2022/05/07 05:21:04;;;;;;;39.88;23.65;;;;;;;12.32;80.59;102216.78;4973904;28;20045;-67
2022/05/07 05:23:46;;;;;;;41.78;24.38;;;;;;;12.46;80.47;102223.28;4972097;28;20042;-66
2022/05/07 05:26:13;;;;;;;38.67;25.00;;;;;;;12.59;80.34;102227.06;4955031;28;20078;-66
2022/05/07 05:28:47;;;;;;;37.90;22.92;;;;;;;12.65;80.35;102224.06;4940368;28;20455;-67
2022/05/07 05:31:14;;;;;;;42.45;25.67;;;;;;;12.86;80.26;102232.88;4954355;28;20037;-68
2022/05/07 05:33:43;;;;;;;41.35;24.15;;;;;;;13.02;79.54;102235.63;4954645;28;20048;-68
2022/05/07 05:36:15;;;;;;;39.80;25.60;;;;;;;13.19;79.10;102225.75;4954584;28;20057;-67
2022/05/07 05:38:43;;;;;;;41.22;26.75;;;;;;;13.62;77.47;102230.72;4954596;28;20034;-67
2022/05/07 05:41:11;;;;;;;43.25;26.27;;;;;;;13.72;77.62;102222.06;4954266;28;20046;-68
2022/05/07 05:43:40;;;;;;;43.22;27.00;;;;;;;14.23;76.87;102230.00;4953963;28;20066;-67
2022/05/07 05:46:07;;;;;;;40.65;25.67;;;;;;;14.38;75.99;102231.81;4953786;28;20699;-67
2022/05/07 05:48:34;;;;;;;46.10;27.02;;;;;;;14.43;75.44;102229.72;4954310;28;20736;-67
2022/05/07 05:50:59;;;;;;;42.95;27.38;;;;;;;14.57;75.57;102237.03;4971821;28;20034;-67
2022/05/07 05:53:31;;;;;;;41.88;27.65;;;;;;;14.68;75.47;102233.72;4951145;28;20106;-67
2022/05/07 05:55:59;;;;;;;45.33;27.42;;;;;;;14.65;75.65;102237.44;4954534;28;20037;-67
2022/05/07 05:58:33;;;;;;;44.08;28.52;;;;;;;14.80;75.35;102238.34;4955032;28;20050;-67
2022/05/07 06:01:00;;;;;;;45.60;28.02;;;;;;;14.96;75.23;102241.88;4972362;28;20542;-67
2022/05/07 06:03:25;;;;;;;42.13;28.05;;;;;;;14.93;75.71;102243.88;4954505;28;20038;-68
2022/05/07 06:05:51;;;;;;;43.53;27.92;;;;;;;14.96;74.87;102243.69;4955606;28;20042;-67
2022/05/07 06:08:17;;;;;;;51.13;29.00;;;;;;;14.97;75.00;102246.28;4954659;28;20913;-67
2022/05/07 06:10:42;;;;;;;42.58;28.90;;;;;;;14.73;76.19;102243.22;4955811;28;20034;-67
2022/05/07 06:13:09;;;;;;;46.08;29.13;;;;;;;15.29;74.92;102244.34;4954655;28;20039;-67
2022/05/07 06:15:40;;;;;;;42.70;28.17;;;;;;;15.33;74.46;102246.88;4955648;28;20073;-67
2022/05/07 06:18:08;;;;;;;45.25;29.65;;;;;;;15.36;74.08;102247.56;4954207;28;20126;-67
2022/05/07 06:20:34;;;;;;;46.53;27.77;;;;;;;15.20;74.43;102247.59;4954664;28;20583;-66
2022/05/07 06:23:00;;;;;;;44.08;28.15;;;;;;;15.19;74.64;102253.94;4954802;28;20055;-67
2022/05/07 06:28:15;;;;;;;45.15;28.58;;;;;;;15.28;74.54;102257.88;4953733;28;20038;-67
2022/05/07 06:30:41;;;;;;;43.45;27.40;;;;;;;15.69;73.10;102251.81;4954308;28;20038;-68
2022/05/07 06:33:11;;;;;;;48.15;27.73;;;;;;;16.00;71.97;102250.75;4955854;28;20027;-67
2022/05/07 06:35:45;;;;;;;42.53;27.25;;;;;;;16.13;71.42;102257.09;4956712;28;20049;-67
2022/05/07 06:38:17;;;;;;;47.05;28.10;;;;;;;16.54;70.88;102264.31;4973865;28;20838;-67
2022/05/07 06:40:47;;;;;;;45.30;27.83;;;;;;;16.29;69.25;102256.97;4956848;28;20038;-67
2022/05/07 06:43:12;;;;;;;43.95;27.20;;;;;;;16.53;68.20;102265.28;4974364;28;20066;-66
2022/05/07 06:45:58;;;;;;;42.38;25.40;;;;;;;16.63;67.86;102262.84;4960673;28;20058;-66
2022/05/07 06:48:24;;;;;;;40.78;25.20;;;;;;;17.02;67.41;102265.59;4975226;28;20149;-66
2022/05/07 06:50:54;;;;;;;44.58;26.88;;;;;;;16.90;67.40;102263.72;4957947;28;20120;-66
2022/05/07 06:53:23;;;;;;;40.55;25.58;;;;;;;17.19;66.97;102272.50;4956327;28;20042;-66
2022/05/07 06:56:03;;;;;;;42.10;24.65;;;;;;;17.11;66.35;102268.59;4974264;28;20076;-66
2022/05/07 06:58:32;;;;;;;40.20;25.48;;;;;;;16.96;66.68;102262.44;4974017;28;20042;-66
2022/05/07 07:00:59;;;;;;;47.13;25.50;;;;;;;17.30;65.34;102263.69;4957439;28;20034;-66
2022/05/07 07:03:26;;;;;;;39.15;24.38;;;;;;;17.79;64.31;102260.28;4974657;28;20133;-67
2022/05/07 07:05:53;;;;;;;37.40;20.98;;;;;;;17.89;64.03;102255.97;4972863;28;20049;-66
2022/05/07 07:08:19;;;;;;;38.50;23.05;;;;;;;17.11;65.91;102258.69;4955418;28;20069;-66
2022/05/07 07:10:45;;;;;;;31.02;19.60;;;;;;;17.78;62.65;102258.56;4973530;28;20049;-66
2022/05/07 07:13:11;;;;;;;35.45;21.48;;;;;;;18.37;61.09;102264.16;4973704;28;20042;-66
2022/05/07 07:15:39;;;;;;;28.65;18.45;;;;;;;19.51;58.19;102251.00;4973787;28;20523;-66
2022/05/07 07:18:09;;;;;;;34.08;19.45;;;;;;;19.86;57.52;102243.69;4972234;28;20030;-65
2022/05/07 07:20:36;;;;;;;26.85;17.38;;;;;;;20.69;53.56;102253.19;4966515;28;20031;-66
2022/05/07 07:23:02;;;;;;;25.02;15.23;;;;;;;19.87;54.86;102244.53;4971136;28;20050;-66
2022/05/07 07:25:28;;;;;;;22.45;14.07;;;;;;;19.74;54.19;102247.38;4985566;28;20050;-66
2022/05/07 07:27:54;;;;;;;25.02;14.43;;;;;;;19.66;52.27;102247.13;4977314;28;20100;-66
2022/05/07 07:30:20;;;;;;;20.88;12.68;;;;;;;20.51;51.55;102242.03;4975676;28;20043;-66
2022/05/07 07:32:45;;;;;;;20.42;13.02;;;;;;;20.01;51.15;102249.72;4956962;28;20042;-66
2022/05/07 07:35:11;;;;;;;19.30;11.88;;;;;;;21.05;48.56;102249.22;4972865;28;20125;-67
2022/05/07 07:37:36;;;;;;;21.58;11.40;;;;;;;20.99;49.76;102248.88;4972997;28;20819;-66
2022/05/07 07:40:02;;;;;;;19.02;12.77;;;;;;;20.32;50.23;102247.19;4972399;28;20034;-66
2022/05/07 07:42:28;;;;;;;21.95;14.18;;;;;;;21.14;49.23;102253.00;4973061;28;20537;-67
2022/05/07 07:50:40;;;;;;;24.98;12.98;;;;;;;22.31;45.99;102249.06;4893527;29;20142;-67
2022/05/07 07:53:10;;;;;;;20.67;13.05;;;;;;;22.05;47.52;102248.66;4895434;29;20103;-66
2022/05/07 07:55:39;;;;;;;17.73;11.75;;;;;;;22.11;46.41;102249.00;4892205;29;20164;-67
2022/05/07 07:58:07;;;;;;;23.83;12.50;;;;;;;21.62;48.06;102245.16;4891072;29;20056;-66
2022/05/07 08:00:34;;;;;;;19.40;12.48;;;;;;;22.53;46.28;102242.50;4891114;29;20051;-66
2022/05/07 08:03:05;;;;;;;22.50;13.27;;;;;;;21.92;47.04;102243.44;4890928;29;20711;-66
2022/05/07 08:05:34;;;;;;;19.58;11.68;;;;;;;22.71;47.84;102246.25;4891028;29;20541;-66
2022/05/07 08:13:38;;;;;;;20.73;12.18;;;;;;;22.41;46.51;102248.06;4890875;29;20142;-66
2022/05/07 08:16:05;;;;;;;21.75;12.52;;;;;;;22.56;49.33;102247.66;4887863;29;20227;-66
2022/05/07 08:18:30;;;;;;;21.08;13.00;;;;;;;21.75;49.19;102244.09;4891681;29;20036;-66
2022/05/07 08:20:56;;;;;;;28.33;13.50;;;;;;;21.69;49.17;102253.66;4892064;29;20172;-66
2022/05/07 08:23:22;;;;;;;22.73;13.10;;;;;;;22.32;50.47;102250.75;4889640;29;20090;-66
2022/05/07 08:25:48;;;;;;;22.92;12.00;;;;;;;;;;4963894;28;20185;-66
2022/05/07 08:28:13;;;;;;;16.65;11.05;;;;;;;22.54;47.01;102249.66;4973021;28;20034;-66
2022/05/07 08:30:39;;;;;;;18.70;12.13;;;;;;;22.35;45.59;102254.06;4983323;28;20044;-66
2022/05/07 08:33:05;;;;;;;20.33;12.60;;;;;;;22.05;48.39;102260.38;4981699;28;20054;-67
2022/05/07 08:35:30;;;;;;;17.05;11.38;;;;;;;22.15;46.84;102260.44;4983023;28;20041;-66
2022/05/07 08:37:56;;;;;;;20.05;12.20;;;;;;;22.25;48.40;102252.34;4975973;28;20073;-66
2022/05/07 08:40:22;;;;;;;21.88;12.10;;;;;;;22.45;45.16;102260.38;4973770;28;20042;-66
2022/05/07 08:42:47;;;;;;;19.00;12.43;;;;;;;23.02;45.50;102257.03;4985732;28;20054;-67
2022/05/07 08:45:13;;;;;;;19.00;12.68;;;;;;;22.71;47.19;102251.69;4979712;28;20097;-67
2022/05/07 08:47:39;;;;;;;20.42;13.15;;;;;;;23.06;45.05;102261.19;4970335;28;20822;-66
2022/05/07 08:50:08;;;;;;;23.38;13.27;;;;;;;22.72;46.19;102254.25;4971201;28;20062;-66
2022/05/07 08:52:38;;;;;;;19.90;13.05;;;;;;;22.76;44.55;102260.28;4969300;28;20053;-66
2022/05/07 08:55:04;;;;;;;19.85;12.55;;;;;;;22.95;47.82;102257.59;4970603;28;20038;-66
2022/05/07 08:57:30;;;;;;;20.60;12.60;;;;;;;22.14;46.45;102259.59;4971469;28;20093;-66
2022/05/07 08:59:56;;;;;;;26.48;12.80;;;;;;;22.28;47.25;102257.47;4970842;28;20687;-66
2022/05/07 09:02:21;;;;;;;25.48;13.18;;;;;;;23.15;46.28;102263.03;4973453;28;20057;-66
2022/05/07 09:04:58;;;;;;;23.58;13.55;;;;;;;22.81;49.08;102252.56;4966840;28;20078;-66
2022/05/07 09:07:24;;;;;;;23.20;14.88;;;;;;;21.84;47.36;102262.28;4964780;28;20050;-66
2022/05/07 09:09:51;;;;;;;26.58;15.13;;;;;;;22.22;46.23;102253.44;4958564;28;20030;-66
2022/05/07 09:12:28;;;;;;;24.48;14.77;;;;;;;22.36;47.52;102254.94;4958495;28;20040;-65
2022/05/07 09:14:59;;;;;;;25.42;13.38;;;;;;;21.94;45.60;102255.91;4953816;28;20034;-66
2022/05/07 09:17:25;;;;;;;23.05;13.55;;;;;;;22.55;45.89;102243.22;4982496;28;20046;-66
2022/05/07 09:19:50;;;;;;;17.95;11.77;;;;;;;23.33;44.20;102244.94;4958730;28;20034;-67
2022/05/07 09:22:16;;;;;;;21.73;13.32;;;;;;;23.21;45.45;102255.13;4973058;28;20794;-66
2022/05/07 09:24:53;;;;;;;24.30;13.73;;;;;;;23.71;43.44;102246.75;4972799;28;20860;-66
2022/05/07 09:27:19;;;;;;;20.17;10.80;;;;;;;23.50;42.37;102248.78;4971760;28;20044;-66
2022/05/07 09:29:45;;;;;;;20.17;10.85;;;;;;;23.33;41.21;102249.53;4971936;28;20030;-66
2022/05/07 09:32:16;;;;;;;17.23;9.98;;;;;;;23.22;41.71;102253.28;4972964;28;20870;-65
2022/05/07 09:37:36;;;;;;;20.02;10.63;;;;;;;23.55;42.89;102243.75;4979157;28;20809;-66
2022/05/07 09:40:09;;;;;;;18.73;9.98;;;;;;;23.80;41.20;102246.84;4936018;28;20046;-66
2022/05/07 09:42:35;;;;;;;17.70;10.77;;;;;;;23.83;40.09;102247.41;4959368;28;20041;-66
2022/05/07 09:45:02;;;;;;;16.52;9.60;;;;;;;24.32;41.11;102245.28;4980514;28;20081;-66
2022/05/07 09:47:27;;;;;;;16.80;8.88;;;;;;;23.72;39.44;102250.31;4981246;28;20046;-66
2022/05/07 09:57:30;;;;;;;14.68;9.13;;;;;;;23.70;42.27;102250.47;4962430;28;20735;-67
2022/05/07 09:58:10;;;;;;;19.40;10.75;;;;;;;23.39;45.71;102251.66;4985404;28;20690;-66
2022/05/07 10:00:43;;;;;;;22.48;10.95;;;;;;;23.49;40.64;102249.78;4974386;28;20104;-66
2022/05/07 10:03:19;;;;;;;21.25;12.00;;;;;;;23.74;40.35;102253.75;4962801;28;20475;-66
2022/05/07 10:06:03;;;;;;;18.85;11.02;;;;;;;23.69;39.66;102239.72;4984933;28;20145;-67
2022/05/07 10:08:48;;;;;;;18.98;9.40;;;;;;;23.89;40.13;102249.53;4990114;28;20126;-66
2022/05/07 10:11:16;;;;;;;15.48;8.70;;;;;;;23.44;41.85;102249.34;4982498;28;20056;-66
2022/05/07 10:14:00;;;;;;;14.48;7.80;;;;;;;23.89;42.37;102245.94;4979686;28;20104;-66
2022/05/07 10:16:32;;;;;;;15.98;8.57;;;;;;;23.91;42.02;102246.66;4976083;28;20046;-66
2022/05/07 10:19:11;;;;;;;17.17;8.10;;;;;;;24.59;38.89;102236.22;4985709;28;20679;-66
2022/05/07 10:21:37;;;;;;;15.98;8.23;;;;;;;24.75;40.49;102241.00;4976893;28;20053;-66
2022/05/07 10:24:03;;;;;;;12.13;7.18;;;;;;;25.01;40.98;102232.88;4988467;28;20049;-66
2022/05/07 10:26:42;;;;;;;16.90;8.05;;;;;;;23.85;40.37;102230.94;4972313;28;20045;-65
2022/05/07 10:29:19;;;;;;;16.23;8.70;;;;;;;24.69;37.96;102225.25;4980681;28;20050;-66
2022/05/07 10:31:45;;;;;;;14.80;7.57;;;;;;;25.61;41.51;102230.28;4992666;28;20085;-66
2022/05/07 10:34:11;;;;;;;17.10;8.60;;;;;;;25.65;38.59;102226.16;4957633;28;20038;-65
2022/05/07 10:36:36;;;;;;;15.57;9.05;;;;;;;25.16;37.59;102228.59;4986785;28;20045;-65
2022/05/07 10:39:09;;;;;;;14.93;8.25;;;;;;;24.48;40.61;102228.28;4971643;28;20026;-66
2022/05/07 10:41:47;;;;;;;15.60;8.95;;;;;;;25.03;40.18;102226.22;4971413;28;20073;-67
2022/05/07 10:44:28;;;;;;;13.48;8.18;;;;;;;25.28;41.88;102232.78;4972496;28;20109;-66
2022/05/07 10:46:54;;;;;;;11.90;7.38;;;;;;;25.21;38.86;102228.13;4980678;28;20145;-66
2022/05/07 10:49:19;;;;;;;15.75;7.97;;;;;;;25.52;38.74;102218.44;4977354;28;20038;-65
2022/05/07 10:51:51;;;;;;;19.88;8.85;;;;;;;25.40;37.94;102207.91;4955602;28;20046;-66
2022/05/07 10:54:24;;;;;;;13.07;8.05;;;;;;;24.87;38.83;102220.66;4987508;28;20053;-66
2022/05/07 10:56:57;;;;;;;14.70;8.45;;;;;;;26.26;37.02;102213.31;4977846;28;20042;-65
2022/05/07 10:59:27;;;;;;;12.55;7.68;;;;;;;26.70;37.50;102204.84;4980102;28;20042;-66
2022/05/07 11:02:05;;;;;;;17.48;8.98;;;;;;;26.11;38.42;102202.16;4973270;28;20030;-65
2022/05/07 11:04:30;;;;;;;13.88;8.48;;;;;;;25.30;41.99;102210.75;4955437;28;20460;-66
2022/05/07 11:06:55;;;;;;;16.35;8.48;;;;;;;24.15;41.14;102210.69;4977559;28;20694;-65
2022/05/07 11:09:23;;;;;;;16.45;9.18;;;;;;;24.41;40.65;102208.09;4957241;28;20046;-65
2022/05/07 11:11:57;;;;;;;12.95;7.07;;;;;;;23.60;41.58;102207.91;4971374;28;20041;-66
2022/05/07 11:14:28;;;;;;;12.07;7.10;;;;;;;23.94;40.19;102206.31;4970740;28;20073;-65
2022/05/07 11:16:55;;;;;;;16.30;7.85;;;;;;;23.90;41.66;102206.81;4971925;28;20096;-66
2022/05/07 11:19:33;;;;;;;12.55;8.05;;;;;;;23.30;41.28;102207.13;4973951;28;20073;-65
2022/05/07 11:22:00;;;;;;;19.00;8.18;;;;;;;23.02;42.31;102210.75;4967550;28;20038;-65
2022/05/07 11:24:34;;;;;;;14.93;7.25;;;;;;;23.37;41.53;102202.81;4970868;28;20034;-65
2022/05/07 11:27:05;;;;;;;18.30;8.25;;;;;;;23.36;43.11;102205.69;4980617;28;20034;-66
2022/05/07 11:29:32;;;;;;;15.00;6.97;;;;;;;23.69;43.36;102204.28;4980776;28;20113;-65
2022/05/07 11:32:00;;;;;;;15.32;7.53;;;;;;;23.66;43.60;102197.28;4973279;28;20026;-66
2022/05/07 11:34:37;;;;;;;12.65;7.25;;;;;;;23.64;40.75;102204.75;4952991;28;20034;-66
2022/05/07 11:37:16;;;;;;;14.80;7.22;;;;;;;24.12;40.60;102195.47;4968427;28;20036;-66
2022/05/07 11:39:57;;;;;;;14.07;7.30;;;;;;;23.42;41.71;102194.19;4968272;28;20150;-66
2022/05/07 11:42:36;;;;;;;15.88;7.38;;;;;;;24.42;38.76;102196.19;4971034;28;20702;-67
2022/05/07 11:45:26;;;;;;;11.82;6.65;;;;;;;24.27;42.23;102201.28;4969810;28;20247;-66
2022/05/07 11:48:07;;;;;;;13.35;6.78;;;;;;;23.92;40.34;102193.88;4971926;28;20049;-66
2022/05/07 11:50:41;;;;;;;14.23;6.67;;;;;;;25.11;38.62;102189.16;4967327;28;20454;-67
2022/05/07 11:53:15;;;;;;;13.13;6.72;;;;;;;24.38;40.86;102197.50;4951626;28;20473;-67